Aérodrome :
LOGIN :

S'inscrire | Disclaimer

   EN    FR    IT 

 










Légende :    VFR   VFR Marginal   IFR   IFR Intensif   IFR Très Intensif
Visi : 
Plafond : 
>= 8 km
>= 3000ft
5 à 8 km
1000 à 3000 ft
1500m à 5 km
500 à 1000 ft
800 à 1500m
200 à 500 ft
< 800m
< 200 ft
Symboles :   Orages  Brouillard  Fortes neiges  Fortes précipitations  Vent > 20 kt
SIGMETs :   Divers  Orages  Givrage  Turbulence  Onde Orograph.  Cendres Volcan.







- Altitude de l'aérodrome : 1017 ft
- Voir les cartes d'approche


LFSL - Brive Souillac

DERNIER METAR :
  • 211530Z AUTO VRB02KT CAVOK 23/06 Q1017 NOSIG

METARs EXPIRÉS :
  • 211500Z AUTO VRB02KT CAVOK 24/05 Q1017 NOSIG
  • 211430Z AUTO VRB03KT CAVOK 23/05 Q1017 NOSIG
  • 211400Z AUTO 17004KT 100V250 CAVOK 23/05 Q1017 NOSIG
  • 211330Z AUTO VRB03KT CAVOK 22/04 Q1017 NOSIG
  • 211300Z AUTO 17003KT 090V240 CAVOK 23/05 Q1017 NOSIG
  • 211230Z AUTO VRB03KT CAVOK 22/07 Q1018 NOSIG

TAF TAF LFSL
Valide du 21 à 15h jusqu'au 22 à 00h UTC


211400Z 2115/2124 VRB03KT CAVOK
Pas de NOTAMs connus pour ce terrain.



MET'MAP, la Météo Aéronautique d'un coup d'oeil ! - Copyright ORBIFLY Décembre 2007 - Disclaimer

ORBIFLY MET'MAP TEAM :

Programmation & Développement : Alexandra Zaïnal
Conception & Développement : Baudouin d'Aumeries
Co-Programmation & Développement : Marc-Olivier Méhu
Soutien technique & logistique : Manuel Goepfert

Contact : metmap@orbifly.com




SOURCES & CREDITS :

   NOAA